Time;durP1;ratioP1;P1;durP2;ratioP2;P2;SDS_P1;SDS_P2;PMS_P1;PMS_P2;Temp;Humidity;BMP_temperature;BMP_pressure;BME280_temperature;BME280_humidity;BME280_pressure;Samples;Min_cycle;Max_cycle;Signal;HPM_P1;HPM_P2
2024/02/13 00:00:14;;;;;;;;;;;17.80;42.90;;;;;;1541168;75;627;-71
2024/02/13 00:02:17;;;;;;;;;;;17.80;42.90;;;;;;1540089;76;664;-70
2024/02/13 00:04:20;;;;;;;;;;;17.80;42.90;;;;;;1541402;75;1175;-71
2024/02/13 00:06:22;;;;;;;;;;;17.80;42.90;;;;;;1544004;75;614;-70
2024/02/13 00:08:27;;;;;;;;;;;17.80;42.90;;;;;;1548351;75;1531;-70
2024/02/13 00:10:29;;;;;;;;;;;17.80;42.90;;;;;;1551098;75;1125;-71
2024/02/13 00:12:31;;;;;;;;;;;17.80;43.00;;;;;;1546779;76;1106;-71
2024/02/13 00:14:33;;;;;;;;;;;17.70;42.90;;;;;;1544391;76;1100;-71
2024/02/13 00:16:38;;;;;;;;;;;17.80;42.90;;;;;;1533603;75;575;-70
2024/02/13 00:18:40;;;;;;;;;;;17.70;42.90;;;;;;1543326;76;653;-70
2024/02/13 00:20:42;;;;;;;;;;;17.70;42.90;;;;;;1539861;76;731;-70
2024/02/13 00:22:45;;;;;;;;;;;17.80;42.90;;;;;;1542871;76;781;-70
2024/02/13 00:24:48;;;;;;;;;;;17.80;42.90;;;;;;1543012;74;1117;-69
2024/02/13 00:26:51;;;;;;;;;;;17.80;42.90;;;;;;1544629;75;724;-71
2024/02/13 00:28:53;;;;;;;;;;;17.70;42.90;;;;;;1550242;75;801;-69
2024/02/13 00:31:00;;;;;;;;;;;17.80;42.90;;;;;;1533929;75;754;-69
2024/02/13 00:32:58;;;;;;;;;;;17.80;42.90;;;;;;1548240;76;1917;-71
2024/02/13 00:35:02;;;;;;;;;;;17.80;42.90;;;;;;1553330;75;685;-70
2024/02/13 00:37:03;;;;;;;;;;;17.80;42.90;;;;;;1543993;76;968;-70
2024/02/13 00:39:07;;;;;;;;;;;17.80;42.80;;;;;;1535060;75;578;-69
2024/02/13 00:41:09;;;;;;;;;;;17.80;42.90;;;;;;1538980;76;850;-70
2024/02/13 00:43:17;;;;;;;;;;;17.80;42.90;;;;;;1553694;75;1210;-71
2024/02/13 00:45:14;;;;;;;;;;;17.70;42.90;;;;;;1546977;76;1544;-68
2024/02/13 00:47:17;;;;;;;;;;;17.70;42.90;;;;;;1552741;76;780;-71
2024/02/13 00:49:20;;;;;;;;;;;17.80;42.90;;;;;;1536868;76;783;-70
2024/02/13 00:51:22;;;;;;;;;;;17.80;42.90;;;;;;1543889;76;729;-69
2024/02/13 00:53:24;;;;;;;;;;;17.80;42.90;;;;;;1551830;76;1912;-71
2024/02/13 00:55:27;;;;;;;;;;;17.80;43.00;;;;;;1535269;75;669;-69
2024/02/13 00:57:29;;;;;;;;;;;17.80;43.00;;;;;;1543114;75;678;-71
2024/02/13 00:59:30;;;;;;;;;;;17.80;42.90;;;;;;1547040;76;751;-71
2024/02/13 01:01:32;;;;;;;;;;;17.80;42.90;;;;;;1536430;76;719;-68
2024/02/13 01:03:36;;;;;;;;;;;17.80;42.90;;;;;;1543191;76;1150;-70
2024/02/13 01:05:40;;;;;;;;;;;17.70;42.90;;;;;;1542425;76;752;-70
2024/02/13 01:07:42;;;;;;;;;;;17.70;42.90;;;;;;1548633;75;1562;-69
2024/02/13 01:09:44;;;;;;;;;;;17.70;42.90;;;;;;1545371;76;628;-70
2024/02/13 01:11:46;;;;;;;;;;;17.80;42.90;;;;;;1557071;76;685;-71
2024/02/13 01:13:48;;;;;;;;;;;17.80;42.90;;;;;;1552742;76;1937;-70
2024/02/13 01:15:50;;;;;;;;;;;17.80;42.90;;;;;;1543592;75;763;-71
2024/02/13 01:17:52;;;;;;;;;;;17.70;42.90;;;;;;1545459;76;636;-71
2024/02/13 01:19:53;;;;;;;;;;;17.80;42.90;;;;;;1548646;75;808;-71
2024/02/13 01:21:56;;;;;;;;;;;17.80;42.90;;;;;;1548274;76;730;-69
2024/02/13 01:23:58;;;;;;;;;;;17.70;42.90;;;;;;1544090;75;1147;-69
2024/02/13 01:26:03;;;;;;;;;;;17.80;42.90;;;;;;1545602;76;701;-70
2024/02/13 01:28:03;;;;;;;;;;;17.80;42.90;;;;;;1550128;76;961;-70
2024/02/13 01:30:07;;;;;;;;;;;17.80;43.00;;;;;;1544830;75;697;-71
2024/02/13 01:32:09;;;;;;;;;;;17.70;42.90;;;;;;1544148;76;971;-70
2024/02/13 01:34:11;;;;;;;;;;;17.80;42.90;;;;;;1535196;75;1960;-69
2024/02/13 01:36:13;;;;;;;;;;;17.80;42.90;;;;;;1546398;75;590;-71
2024/02/13 01:38:14;;;;;;;;;;;17.70;42.90;;;;;;1553490;76;771;-67
2024/02/13 01:40:17;;;;;;;;;;;17.80;43.00;;;;;;1552679;76;720;-71
2024/02/13 01:42:19;;;;;;;;;;;17.80;42.90;;;;;;1544532;75;786;-71
2024/02/13 01:44:21;;;;;;;;;;;17.70;42.90;;;;;;1551886;76;1152;-71
2024/02/13 01:46:22;;;;;;;;;;;17.70;42.90;;;;;;1549468;75;664;-71
2024/02/13 01:48:25;;;;;;;;;;;17.70;42.90;;;;;;1545222;75;720;-71
2024/02/13 01:50:27;;;;;;;;;;;17.70;42.90;;;;;;1546211;76;712;-71
2024/02/13 01:52:29;;;;;;;;;;;17.70;42.90;;;;;;1545744;75;662;-71
2024/02/13 01:54:30;;;;;;;;;;;17.80;42.90;;;;;;1537219;75;1995;-71
2024/02/13 01:56:33;;;;;;;;;;;17.80;42.90;;;;;;1544096;75;743;-71
2024/02/13 01:58:36;;;;;;;;;;;17.80;42.90;;;;;;1542073;76;579;-71
2024/02/13 02:00:38;;;;;;;;;;;17.80;42.90;;;;;;1548715;76;742;-70
2024/02/13 02:02:42;;;;;;;;;;;17.80;42.80;;;;;;1548459;76;613;-71
2024/02/13 02:04:44;;;;;;;;;;;17.80;42.90;;;;;;1540852;76;1094;-70
2024/02/13 02:06:46;;;;;;;;;;;17.70;42.90;;;;;;1540114;76;730;-71
2024/02/13 02:08:48;;;;;;;;;;;17.80;42.80;;;;;;1549307;75;717;-70
2024/02/13 02:10:50;;;;;;;;;;;17.80;42.90;;;;;;1542557;76;666;-69
2024/02/13 02:12:52;;;;;;;;;;;17.70;42.90;;;;;;1542412;76;1195;-71
2024/02/13 02:14:54;;;;;;;;;;;17.80;42.90;;;;;;1542005;75;1943;-71
2024/02/13 02:16:59;;;;;;;;;;;17.80;42.90;;;;;;1545925;76;691;-70
2024/02/13 02:19:02;;;;;;;;;;;17.80;42.90;;;;;;1545886;74;1090;-71
2024/02/13 02:21:04;;;;;;;;;;;17.80;42.90;;;;;;1550985;75;719;-71
2024/02/13 02:23:07;;;;;;;;;;;17.70;42.90;;;;;;1543788;76;1176;-71
2024/02/13 02:25:09;;;;;;;;;;;17.80;42.90;;;;;;1552993;75;693;-69
2024/02/13 02:27:11;;;;;;;;;;;17.80;42.90;;;;;;1546291;76;735;-69
2024/02/13 02:29:12;;;;;;;;;;;17.80;42.90;;;;;;1548179;75;723;-69
2024/02/13 02:31:15;;;;;;;;;;;17.70;42.90;;;;;;1543074;75;744;-70
2024/02/13 02:33:17;;;;;;;;;;;17.80;42.90;;;;;;1542059;75;1116;-70
2024/02/13 02:35:19;;;;;;;;;;;17.70;42.90;;;;;;1547551;75;1923;-70
2024/02/13 02:37:21;;;;;;;;;;;17.70;42.80;;;;;;1540000;75;674;-70
2024/02/13 02:39:23;;;;;;;;;;;17.80;42.80;;;;;;1541781;75;690;-70
2024/02/13 02:41:25;;;;;;;;;;;17.80;42.90;;;;;;1541871;76;722;-70
2024/02/13 02:43:26;;;;;;;;;;;17.80;42.80;;;;;;1539759;76;1144;-70
2024/02/13 02:45:28;;;;;;;;;;;17.80;42.80;;;;;;1543974;76;710;-69
2024/02/13 02:47:30;;;;;;;;;;;17.80;42.90;;;;;;1540299;76;712;-70
2024/02/13 02:49:32;;;;;;;;;;;17.80;42.90;;;;;;1551353;76;811;-69
2024/02/13 02:51:34;;;;;;;;;;;17.80;42.90;;;;;;1551886;76;673;-70
2024/02/13 02:53:36;;;;;;;;;;;17.80;42.90;;;;;;1548774;75;1937;-71
2024/02/13 02:55:38;;;;;;;;;;;17.80;42.90;;;;;;1548126;75;680;-70
2024/02/13 02:57:40;;;;;;;;;;;17.80;42.80;;;;;;1554719;75;747;-70
2024/02/13 02:59:43;;;;;;;;;;;17.70;42.80;;;;;;1545607;76;578;-70
2024/02/13 03:01:46;;;;;;;;;;;17.80;42.80;;;;;;1548339;75;613;-71
2024/02/13 03:03:50;;;;;;;;;;;17.70;42.80;;;;;;1542130;76;1197;-70
2024/02/13 03:05:51;;;;;;;;;;;17.70;42.80;;;;;;1547085;76;716;-71
2024/02/13 03:07:54;;;;;;;;;;;17.70;42.80;;;;;;1549078;76;1474;-69
2024/02/13 03:09:56;;;;;;;;;;;17.70;42.90;;;;;;1550892;75;636;-71
2024/02/13 03:11:59;;;;;;;;;;;17.80;42.80;;;;;;1551403;76;739;-70
2024/02/13 03:14:03;;;;;;;;;;;17.80;42.80;;;;;;1543678;75;1931;-69
2024/02/13 03:16:05;;;;;;;;;;;17.80;42.80;;;;;;1551188;76;2054;-70
2024/02/13 03:18:08;;;;;;;;;;;17.70;42.80;;;;;;1550670;76;624;-70
2024/02/13 03:20:10;;;;;;;;;;;17.70;42.80;;;;;;1544477;76;629;-70
2024/02/13 03:22:12;;;;;;;;;;;17.70;42.80;;;;;;1538199;76;626;-69
2024/02/13 03:24:14;;;;;;;;;;;17.70;42.80;;;;;;1546427;75;1121;-70
2024/02/13 03:26:16;;;;;;;;;;;17.80;42.80;;;;;;1540882;75;700;-69
2024/02/13 03:28:18;;;;;;;;;;;17.70;42.80;;;;;;1543346;76;675;-71
2024/02/13 03:30:19;;;;;;;;;;;17.80;42.80;;;;;;1544531;76;686;-70
2024/02/13 03:32:21;;;;;;;;;;;17.80;42.80;;;;;;1536656;76;680;-71
2024/02/13 03:34:23;;;;;;;;;;;17.80;42.80;;;;;;1552294;76;1927;-71
2024/02/13 03:36:25;;;;;;;;;;;17.80;42.80;;;;;;1544139;76;756;-69
2024/02/13 03:38:27;;;;;;;;;;;17.80;42.80;;;;;;1554679;76;795;-71
2024/02/13 03:40:29;;;;;;;;;;;17.70;42.80;;;;;;1549928;76;705;-70
2024/02/13 03:42:31;;;;;;;;;;;17.70;42.90;;;;;;1535355;75;756;-70
2024/02/13 03:44:33;;;;;;;;;;;17.70;42.80;;;;;;1544006;75;1111;-71
2024/02/13 03:46:35;;;;;;;;;;;17.80;42.80;;;;;;1549644;76;869;-71
2024/02/13 03:48:37;;;;;;;;;;;17.70;42.80;;;;;;1550682;76;679;-69
2024/02/13 03:50:41;;;;;;;;;;;17.80;42.80;;;;;;1546960;75;807;-69
2024/02/13 03:52:43;;;;;;;;;;;17.70;42.90;;;;;;1551167;76;1147;-70
2024/02/13 03:54:45;;;;;;;;;;;17.70;42.80;;;;;;1553242;76;1935;-69
2024/02/13 03:56:47;;;;;;;;;;;17.70;42.80;;;;;;1542670;75;709;-70
2024/02/13 03:58:48;;;;;;;;;;;17.80;42.90;;;;;;1545538;75;723;-69
2024/02/13 04:00:50;;;;;;;;;;;17.80;42.80;;;;;;1549150;76;744;-71
2024/02/13 04:02:52;;;;;;;;;;;17.80;42.80;;;;;;1548502;75;1148;-69
2024/02/13 04:04:55;;;;;;;;;;;17.70;42.90;;;;;;1551117;75;771;-71
2024/02/13 04:06:57;;;;;;;;;;;17.80;42.90;;;;;;1550909;75;1448;-69
2024/02/13 04:09:00;;;;;;;;;;;17.70;42.90;;;;;;1543986;76;785;-70
2024/02/13 04:11:03;;;;;;;;;;;17.70;42.90;;;;;;1556844;75;694;-71
2024/02/13 04:13:06;;;;;;;;;;;17.80;42.90;;;;;;1549025;76;1142;-71
2024/02/13 04:15:08;;;;;;;;;;;17.70;42.90;;;;;;1549328;75;1901;-70
2024/02/13 04:17:10;;;;;;;;;;;17.80;42.80;;;;;;1543955;76;714;-68
2024/02/13 04:19:12;;;;;;;;;;;17.80;42.80;;;;;;1550502;76;740;-71
2024/02/13 04:21:16;;;;;;;;;;;17.80;42.80;;;;;;1551757;75;700;-71
2024/02/13 04:23:19;;;;;;;;;;;17.80;42.80;;;;;;1544204;75;1147;-70
2024/02/13 04:25:21;;;;;;;;;;;17.70;42.80;;;;;;1541364;76;677;-70
2024/02/13 04:27:23;;;;;;;;;;;17.70;42.80;;;;;;1543478;76;733;-70
2024/02/13 04:29:25;;;;;;;;;;;17.80;42.80;;;;;;1545972;76;763;-68
2024/02/13 04:31:26;;;;;;;;;;;17.80;42.80;;;;;;1545122;76;574;-71
2024/02/13 04:33:28;;;;;;;;;;;17.70;42.80;;;;;;1548484;76;1154;-69
2024/02/13 04:35:30;;;;;;;;;;;17.80;42.90;;;;;;1544860;76;1924;-70
2024/02/13 04:37:33;;;;;;;;;;;17.70;42.80;;;;;;1553488;76;720;-70
2024/02/13 04:39:34;;;;;;;;;;;17.80;42.80;;;;;;1555539;76;596;-70
2024/02/13 04:41:36;;;;;;;;;;;17.80;42.80;;;;;;1546481;76;728;-71
2024/02/13 04:43:38;;;;;;;;;;;17.80;42.80;;;;;;1548243;76;1151;-69
2024/02/13 04:45:40;;;;;;;;;;;17.70;42.80;;;;;;1554109;75;774;-71
2024/02/13 04:47:42;;;;;;;;;;;17.80;42.80;;;;;;1547387;75;626;-69
2024/02/13 04:49:44;;;;;;;;;;;17.80;42.80;;;;;;1547724;75;709;-69
2024/02/13 04:51:46;;;;;;;;;;;17.70;42.90;;;;;;1553452;76;783;-70
2024/02/13 04:53:48;;;;;;;;;;;17.70;42.80;;;;;;1548267;75;1163;-70
2024/02/13 04:55:50;;;;;;;;;;;17.80;42.80;;;;;;1544063;75;1953;-70
2024/02/13 04:57:52;;;;;;;;;;;17.70;42.90;;;;;;1544385;75;649;-71
2024/02/13 04:59:57;;;;;;;;;;;17.70;42.80;;;;;;1554134;76;728;-70
2024/02/13 05:02:04;;;;;;;;;;;17.80;42.80;;;;;;1544295;75;1423;-70
2024/02/13 05:08:37;;;;;;;;;;;17.70;42.80;;;;;;1544855;76;1656;-71
2024/02/13 05:10:39;;;;;;;;;;;17.80;42.80;;;;;;1548468;76;636;-70
2024/02/13 05:12:43;;;;;;;;;;;17.70;42.80;;;;;;1546794;76;747;-70
2024/02/13 05:14:44;;;;;;;;;;;17.70;42.80;;;;;;1544309;76;1932;-68
2024/02/13 05:16:46;;;;;;;;;;;17.80;42.80;;;;;;1550124;76;797;-70
2024/02/13 05:18:48;;;;;;;;;;;17.80;42.80;;;;;;1552314;75;736;-68
2024/02/13 05:20:50;;;;;;;;;;;17.80;42.80;;;;;;1543840;76;698;-70
2024/02/13 05:22:53;;;;;;;;;;;17.80;42.80;;;;;;1552081;75;755;-71
2024/02/13 05:24:55;;;;;;;;;;;17.70;42.80;;;;;;1534101;75;733;-69
2024/02/13 05:26:57;;;;;;;;;;;17.70;42.90;;;;;;1550166;75;664;-69
2024/02/13 05:28:59;;;;;;;;;;;17.70;42.80;;;;;;1549411;75;1042;-71
2024/02/13 05:31:01;;;;;;;;;;;17.70;42.80;;;;;;1544604;76;709;-71
2024/02/13 05:33:04;;;;;;;;;;;17.70;42.90;;;;;;1547031;75;1130;-70
2024/02/13 05:35:07;;;;;;;;;;;17.80;42.80;;;;;;1552308;75;1906;-70
2024/02/13 05:37:09;;;;;;;;;;;17.70;42.80;;;;;;1540291;75;719;-70
2024/02/13 05:39:12;;;;;;;;;;;17.80;42.80;;;;;;1555179;75;715;-71
2024/02/13 05:41:15;;;;;;;;;;;17.80;42.80;;;;;;1549708;75;719;-70
2024/02/13 05:43:17;;;;;;;;;;;17.80;42.80;;;;;;1553927;76;1149;-71
2024/02/13 05:45:20;;;;;;;;;;;17.80;42.80;;;;;;1541672;76;747;-69
2024/02/13 05:47:23;;;;;;;;;;;17.70;42.80;;;;;;1536403;76;643;-71
2024/02/13 05:49:25;;;;;;;;;;;17.80;42.80;;;;;;1545401;76;724;-71
2024/02/13 05:51:27;;;;;;;;;;;17.70;42.80;;;;;;1551155;75;812;-70
2024/02/13 05:53:29;;;;;;;;;;;17.70;42.80;;;;;;1546820;75;1210;-69
2024/02/13 05:55:31;;;;;;;;;;;17.80;42.80;;;;;;1543496;75;1902;-71
2024/02/13 05:57:33;;;;;;;;;;;17.80;42.80;;;;;;1540663;74;661;-69
2024/02/13 05:59:35;;;;;;;;;;;17.80;42.80;;;;;;1546295;76;798;-69
2024/02/13 06:01:37;;;;;;;;;;;17.80;42.80;;;;;;1550576;76;804;-70
2024/02/13 06:03:39;;;;;;;;;;;17.70;42.80;;;;;;1545506;76;1194;-71
2024/02/13 06:05:41;;;;;;;;;;;17.70;42.80;;;;;;1548353;76;672;-72
2024/02/13 06:07:44;;;;;;;;;;;17.80;42.80;;;;;;1543404;75;1436;-70
2024/02/13 06:09:45;;;;;;;;;;;17.70;42.80;;;;;;1538651;75;693;-70
2024/02/13 06:11:48;;;;;;;;;;;17.70;42.90;;;;;;1544379;75;673;-70
2024/02/13 06:13:50;;;;;;;;;;;17.70;42.80;;;;;;1561405;75;1176;-71
2024/02/13 06:15:52;;;;;;;;;;;17.70;42.80;;;;;;1541269;76;1912;-70
2024/02/13 06:17:54;;;;;;;;;;;17.70;42.90;;;;;;1548174;75;593;-70
2024/02/13 06:20:01;;;;;;;;;;;17.70;42.80;;;;;;1549330;74;693;-70
2024/02/13 06:22:00;;;;;;;;;;;17.70;42.80;;;;;;1551836;76;1612;-70
2024/02/13 06:24:02;;;;;;;;;;;17.80;42.80;;;;;;1542506;75;1138;-67
2024/02/13 06:26:04;;;;;;;;;;;17.80;42.90;;;;;;1547502;76;651;-70
2024/02/13 06:28:06;;;;;;;;;;;17.80;42.80;;;;;;1549532;75;701;-71
2024/02/13 06:30:08;;;;;;;;;;;17.70;42.80;;;;;;1544068;76;720;-70
2024/02/13 06:32:10;;;;;;;;;;;17.70;42.80;;;;;;1554709;75;687;-70
2024/02/13 06:34:15;;;;;;;;;;;17.80;42.80;;;;;;1555073;74;1102;-70
2024/02/13 06:36:19;;;;;;;;;;;17.70;42.80;;;;;;1549552;75;1948;-71
2024/02/13 06:38:22;;;;;;;;;;;17.70;42.80;;;;;;1544522;75;712;-70
2024/02/13 06:40:23;;;;;;;;;;;17.70;42.80;;;;;;1546016;75;645;-70
2024/02/13 06:42:25;;;;;;;;;;;17.80;42.80;;;;;;1550686;75;675;-70
2024/02/13 06:44:27;;;;;;;;;;;17.80;42.80;;;;;;1551628;75;1189;-70
2024/02/13 06:46:29;;;;;;;;;;;17.80;42.80;;;;;;1538970;75;691;-70
2024/02/13 06:48:31;;;;;;;;;;;17.70;42.80;;;;;;1553783;75;714;-70
2024/02/13 06:50:33;;;;;;;;;;;17.80;42.80;;;;;;1543618;76;714;-71
2024/02/13 06:52:35;;;;;;;;;;;17.70;42.80;;;;;;1542339;76;793;-69
2024/02/13 06:54:37;;;;;;;;;;;17.70;42.80;;;;;;1543546;75;1157;-70
2024/02/13 06:56:39;;;;;;;;;;;17.70;42.80;;;;;;1545292;76;1955;-70
2024/02/13 06:58:41;;;;;;;;;;;17.70;42.80;;;;;;1549216;75;730;-71
2024/02/13 07:00:44;;;;;;;;;;;17.70;42.80;;;;;;1550277;76;693;-70
2024/02/13 07:02:50;;;;;;;;;;;17.70;42.80;;;;;;1546933;75;724;-70
2024/02/13 07:04:49;;;;;;;;;;;17.70;42.80;;;;;;1548316;75;1115;-71
2024/02/13 07:06:55;;;;;;;;;;;17.80;42.80;;;;;;1548502;76;1524;-71
2024/02/13 07:08:55;;;;;;;;;;;17.70;42.80;;;;;;1541792;76;1555;-70
2024/02/13 07:10:57;;;;;;;;;;;17.70;42.80;;;;;;1546560;75;713;-69
2024/02/13 07:12:59;;;;;;;;;;;17.80;42.80;;;;;;1542006;75;1158;-71
2024/02/13 07:15:01;;;;;;;;;;;17.70;42.80;;;;;;1551478;76;777;-70
2024/02/13 07:17:03;;;;;;;;;;;17.70;42.80;;;;;;1549004;75;1945;-71
2024/02/13 07:19:05;;;;;;;;;;;17.80;42.80;;;;;;1544869;75;678;-71
2024/02/13 07:21:07;;;;;;;;;;;17.70;42.80;;;;;;1544725;76;634;-71
2024/02/13 07:23:09;;;;;;;;;;;17.70;42.80;;;;;;1542684;76;1166;-70
2024/02/13 07:25:11;;;;;;;;;;;17.80;42.80;;;;;;1547649;75;711;-70
2024/02/13 07:27:13;;;;;;;;;;;17.70;42.80;;;;;;1548406;76;792;-71
2024/02/13 07:29:15;;;;;;;;;;;17.80;42.80;;;;;;1541960;76;733;-70
2024/02/13 07:31:19;;;;;;;;;;;17.80;42.80;;;;;;1554459;75;754;-69
2024/02/13 07:33:21;;;;;;;;;;;17.80;42.80;;;;;;1544120;75;1154;-71
2024/02/13 07:35:23;;;;;;;;;;;17.70;42.80;;;;;;1547151;75;1921;-71
2024/02/13 07:37:25;;;;;;;;;;;17.70;42.80;;;;;;1545819;75;680;-69
2024/02/13 07:39:27;;;;;;;;;;;17.70;42.80;;;;;;1544823;76;704;-71
2024/02/13 07:41:29;;;;;;;;;;;17.70;42.80;;;;;;1548653;76;752;-71
2024/02/13 07:43:31;;;;;;;;;;;17.80;42.90;;;;;;1547346;76;1144;-70
2024/02/13 07:45:32;;;;;;;;;;;17.70;42.80;;;;;;1549533;76;683;-70
2024/02/13 07:47:35;;;;;;;;;;;17.90;42.90;;;;;;1549169;76;731;-70
2024/02/13 07:49:37;;;;;;;;;;;17.70;42.80;;;;;;1541557;76;938;-71
2024/02/13 07:51:39;;;;;;;;;;;17.70;42.80;;;;;;1544662;75;694;-69
2024/02/13 07:53:41;;;;;;;;;;;17.70;42.80;;;;;;1546384;76;1163;-71
2024/02/13 07:55:44;;;;;;;;;;;17.70;42.90;;;;;;1544351;75;1928;-68
2024/02/13 07:57:50;;;;;;;;;;;17.70;42.80;;;;;;1552902;75;627;-69
2024/02/13 07:59:54;;;;;;;;;;;17.70;42.80;;;;;;1544008;75;1368;-69
2024/02/13 08:01:56;;;;;;;;;;;17.80;42.80;;;;;;1537086;76;1112;-71
2024/02/13 08:03:58;;;;;;;;;;;17.70;42.80;;;;;;1545815;75;1166;-68
2024/02/13 08:06:04;;;;;;;;;;;17.70;42.80;;;;;;1545881;75;737;-69
2024/02/13 08:08:10;;;;;;;;;;;17.70;42.80;;;;;;1542105;76;1462;-71
2024/02/13 08:10:13;;;;;;;;;;;17.70;42.80;;;;;;1542318;75;1177;-71
2024/02/13 08:12:15;;;;;;;;;;;17.70;42.90;;;;;;1549382;76;739;-70
2024/02/13 08:14:17;;;;;;;;;;;17.70;42.80;;;;;;1545755;76;1150;-70
2024/02/13 08:16:21;;;;;;;;;;;17.70;42.80;;;;;;1545465;76;1938;-71
2024/02/13 08:18:23;;;;;;;;;;;17.70;42.80;;;;;;1547825;76;2010;-70
2024/02/13 08:20:25;;;;;;;;;;;17.80;42.80;;;;;;1548834;75;663;-69
2024/02/13 08:22:27;;;;;;;;;;;17.70;42.90;;;;;;1543496;75;709;-71
2024/02/13 08:24:29;;;;;;;;;;;17.70;42.90;;;;;;1554524;75;1126;-70
2024/02/13 08:26:31;;;;;;;;;;;17.70;42.80;;;;;;1557139;76;619;-71
2024/02/13 08:28:33;;;;;;;;;;;17.70;42.80;;;;;;1547281;76;661;-71
2024/02/13 08:30:35;;;;;;;;;;;17.70;42.90;;;;;;1543660;76;660;-71
2024/02/13 08:32:45;;;;;;;;;;;17.80;42.80;;;;;;1545875;76;687;-71
2024/02/13 08:34:44;;;;;;;;;;;17.70;42.80;;;;;;1546620;75;1100;-71
2024/02/13 08:36:46;;;;;;;;;;;17.70;42.80;;;;;;1543469;75;1939;-71
2024/02/13 08:38:49;;;;;;;;;;;17.80;42.80;;;;;;1546907;75;797;-68
2024/02/13 08:40:51;;;;;;;;;;;17.70;42.80;;;;;;1547891;76;596;-70
2024/02/13 08:42:52;;;;;;;;;;;17.70;42.80;;;;;;1551553;75;782;-68
2024/02/13 08:44:56;;;;;;;;;;;17.70;42.80;;;;;;1554513;75;631;-71
2024/02/13 08:46:58;;;;;;;;;;;17.80;42.80;;;;;;1558644;75;1644;-71
2024/02/13 08:49:00;;;;;;;;;;;17.70;42.80;;;;;;1545933;76;661;-69
2024/02/13 08:51:02;;;;;;;;;;;17.70;42.80;;;;;;1546382;76;663;-70
2024/02/13 08:53:04;;;;;;;;;;;17.80;42.80;;;;;;1550699;76;1120;-70
2024/02/13 08:55:07;;;;;;;;;;;17.70;42.80;;;;;;1546402;76;758;-70
2024/02/13 08:57:10;;;;;;;;;;;17.80;42.80;;;;;;1547271;76;1904;-70
2024/02/13 08:59:12;;;;;;;;;;;17.70;42.80;;;;;;1545039;75;776;-70
2024/02/13 09:01:13;;;;;;;;;;;17.70;42.80;;;;;;1543724;76;844;-71
2024/02/13 09:03:15;;;;;;;;;;;17.70;42.80;;;;;;1543521;76;1174;-71
2024/02/13 09:05:17;;;;;;;;;;;17.70;42.80;;;;;;1550387;76;557;-70
2024/02/13 09:07:19;;;;;;;;;;;17.80;42.80;;;;;;1544752;75;1423;-71
2024/02/13 09:09:21;;;;;;;;;;;17.80;42.80;;;;;;1536134;76;849;-71
2024/02/13 09:11:26;;;;;;;;;;;17.70;42.80;;;;;;1542015;75;665;-70
2024/02/13 09:13:28;;;;;;;;;;;17.70;42.80;;;;;;1551889;75;1165;-70
2024/02/13 09:15:30;;;;;;;;;;;17.80;42.80;;;;;;1547260;76;654;-70
2024/02/13 09:17:33;;;;;;;;;;;17.70;42.70;;;;;;1537610;76;1933;-71
2024/02/13 09:19:37;;;;;;;;;;;17.80;42.80;;;;;;1545080;76;655;-71
2024/02/13 09:21:40;;;;;;;;;;;17.70;42.80;;;;;;1552463;76;1584;-71
2024/02/13 09:23:43;;;;;;;;;;;17.70;42.80;;;;;;1548341;76;1162;-69
2024/02/13 09:25:49;;;;;;;;;;;17.80;42.80;;;;;;1547724;75;708;-71
2024/02/13 09:27:49;;;;;;;;;;;17.70;42.80;;;;;;1544313;76;947;-70
2024/02/13 09:29:53;;;;;;;;;;;17.80;42.70;;;;;;1550749;75;748;-71
2024/02/13 09:31:54;;;;;;;;;;;17.80;42.80;;;;;;1556643;76;683;-70
2024/02/13 09:33:56;;;;;;;;;;;17.70;42.80;;;;;;1545145;76;1169;-71
2024/02/13 09:35:58;;;;;;;;;;;17.80;42.80;;;;;;1545431;76;1928;-71
2024/02/13 09:38:00;;;;;;;;;;;17.80;42.80;;;;;;1544292;75;739;-71
2024/02/13 09:40:03;;;;;;;;;;;17.70;42.80;;;;;;1552013;75;742;-71
2024/02/13 09:42:07;;;;;;;;;;;17.70;42.80;;;;;;1547287;76;664;-71
2024/02/13 09:44:08;;;;;;;;;;;17.80;42.80;;;;;;1549873;75;1190;-71
2024/02/13 09:46:10;;;;;;;;;;;17.70;42.80;;;;;;1552086;75;635;-71
2024/02/13 09:48:21;;;;;;;;;;;17.70;42.80;;;;;;1540653;76;719;-70
2024/02/13 09:50:23;;;;;;;;;;;17.80;42.80;;;;;;1554095;75;766;-70
2024/02/13 09:52:25;;;;;;;;;;;17.80;42.70;;;;;;1546820;76;684;-70
2024/02/13 09:54:27;;;;;;;;;;;17.70;42.80;;;;;;1535652;75;1122;-71
2024/02/13 09:56:29;;;;;;;;;;;17.80;42.80;;;;;;1546081;75;1921;-71
2024/02/13 09:58:32;;;;;;;;;;;17.80;42.80;;;;;;1544922;75;657;-70
2024/02/13 10:00:34;;;;;;;;;;;17.80;42.80;;;;;;1550706;76;842;-71
2024/02/13 10:02:43;;;;;;;;;;;17.80;42.70;;;;;;1539930;76;582;-70
2024/02/13 10:04:42;;;;;;;;;;;17.80;42.80;;;;;;1545720;76;1220;-69
2024/02/13 10:06:44;;;;;;;;;;;17.80;42.80;;;;;;1554171;76;689;-69
2024/02/13 10:08:51;;;;;;;;;;;17.70;42.80;;;;;;1543598;75;1304;-71
2024/02/13 10:10:51;;;;;;;;;;;17.80;42.80;;;;;;1517557;77;996;-70
2024/02/13 10:12:53;;;;;;;;;;;17.70;42.80;;;;;;1536824;76;1621;-71
2024/02/13 10:14:58;;;;;;;;;;;17.80;42.70;;;;;;1550391;76;727;-70
2024/02/13 10:17:00;;;;;;;;;;;17.80;42.70;;;;;;1543519;75;1925;-70
2024/02/13 10:19:02;;;;;;;;;;;17.80;42.80;;;;;;1541077;75;1191;-69
2024/02/13 10:21:05;;;;;;;;;;;17.80;42.80;;;;;;1543285;76;680;-71
2024/02/13 10:23:07;;;;;;;;;;;17.80;42.80;;;;;;1543462;76;1167;-71
2024/02/13 10:25:11;;;;;;;;;;;17.80;42.80;;;;;;1551014;76;555;-71
2024/02/13 10:27:14;;;;;;;;;;;17.80;42.80;;;;;;1541647;76;1918;-70
2024/02/13 10:29:17;;;;;;;;;;;17.70;42.70;;;;;;1545224;76;692;-69
2024/02/13 10:31:26;;;;;;;;;;;17.80;42.80;;;;;;1549306;75;612;-71
2024/02/13 10:33:27;;;;;;;;;;;17.80;42.80;;;;;;1547562;75;1114;-71
2024/02/13 10:35:29;;;;;;;;;;;17.70;42.70;;;;;;1550412;75;692;-71
2024/02/13 10:37:31;;;;;;;;;;;17.80;42.80;;;;;;1535677;75;1983;-69
2024/02/13 10:39:34;;;;;;;;;;;17.80;42.80;;;;;;1512148;77;677;-71
2024/02/13 10:41:38;;;;;;;;;;;17.80;42.80;;;;;;1506451;77;663;-71
2024/02/13 10:43:40;;;;;;;;;;;17.80;42.70;;;;;;1506217;77;1155;-69
2024/02/13 10:45:42;;;;;;;;;;;17.80;42.70;;;;;;1503720;77;734;-68
2024/02/13 10:47:49;;;;;;;;;;;17.80;42.70;;;;;;1506208;77;703;-71
2024/02/13 10:49:58;;;;;;;;;;;17.80;42.70;;;;;;1505428;77;942;-71
2024/02/13 10:51:56;;;;;;;;;;;17.80;42.70;;;;;;1500132;77;1058;-71
2024/02/13 10:54:00;;;;;;;;;;;17.80;42.70;;;;;;1506024;77;1141;-71
2024/02/13 10:56:02;;;;;;;;;;;17.80;42.70;;;;;;1506001;77;1101;-70
2024/02/13 10:58:04;;;;;;;;;;;17.80;42.70;;;;;;1512958;77;1917;-71
2024/02/13 11:00:14;;;;;;;;;;;17.80;42.70;;;;;;1515041;77;681;-71
2024/02/13 11:02:18;;;;;;;;;;;17.80;42.70;;;;;;1507972;77;1003;-71
2024/02/13 11:04:17;;;;;;;;;;;17.80;42.70;;;;;;1505792;77;1466;-69
2024/02/13 11:06:18;;;;;;;;;;;17.80;42.80;;;;;;1510970;77;702;-71
2024/02/13 11:08:20;;;;;;;;;;;17.70;42.70;;;;;;1509076;77;1338;-71
2024/02/13 11:10:29;;;;;;;;;;;17.80;42.80;;;;;;1505775;77;689;-71
2024/02/13 11:12:29;;;;;;;;;;;17.80;42.70;;;;;;1514613;77;1012;-71
2024/02/13 11:14:31;;;;;;;;;;;17.70;42.70;;;;;;1511751;77;1148;-71
2024/02/13 11:16:34;;;;;;;;;;;17.80;42.70;;;;;;1507331;78;1920;-70
2024/02/13 11:18:37;;;;;;;;;;;17.80;42.70;;;;;;1506919;77;737;-71
2024/02/13 11:20:42;;;;;;;;;;;17.80;42.70;;;;;;1513325;77;1474;-69
2024/02/13 11:22:52;;;;;;;;;;;17.80;42.70;;;;;;1499431;77;1487;-71
2024/02/13 11:25:00;;;;;;;;;;;17.70;42.70;;;;;;1512713;77;750;-70
2024/02/13 11:26:59;;;;;;;;;;;17.80;42.70;;;;;;1505968;77;1644;-71
2024/02/13 11:29:10;;;;;;;;;;;17.80;42.70;;;;;;1511223;77;1551;-69
2024/02/13 11:31:15;;;;;;;;;;;17.80;42.70;;;;;;1514687;77;579;-71
2024/02/13 11:33:19;;;;;;;;;;;17.80;42.70;;;;;;1547355;75;1183;-70
2024/02/13 11:35:23;;;;;;;;;;;17.80;42.70;;;;;;1523214;77;1575;-71
2024/02/13 11:37:30;;;;;;;;;;;17.80;42.70;;;;;;1534206;75;1912;-71
2024/02/13 11:39:29;;;;;;;;;;;17.80;42.70;;;;;;1540669;75;1468;-70
2024/02/13 11:41:31;;;;;;;;;;;17.80;42.70;;;;;;1535979;75;595;-71
2024/02/13 11:43:33;;;;;;;;;;;17.80;42.70;;;;;;1538360;76;1134;-71
2024/02/13 11:45:35;;;;;;;;;;;17.80;42.70;;;;;;1542619;75;681;-70
2024/02/13 11:47:38;;;;;;;;;;;17.80;42.70;;;;;;1510750;77;732;-71
2024/02/13 11:49:40;;;;;;;;;;;17.80;42.70;;;;;;1546162;75;667;-71
2024/02/13 11:51:41;;;;;;;;;;;17.80;42.70;;;;;;1551170;75;729;-69
2024/02/13 11:53:43;;;;;;;;;;;17.80;42.70;;;;;;1546329;75;1150;-71
2024/02/13 11:55:45;;;;;;;;;;;17.80;42.70;;;;;;1547840;76;803;-71
2024/02/13 11:57:47;;;;;;;;;;;17.80;42.60;;;;;;1538477;75;1923;-70
2024/02/13 11:59:56;;;;;;;;;;;17.80;42.70;;;;;;1552724;74;651;-70
2024/02/13 12:01:58;;;;;;;;;;;17.80;42.70;;;;;;1544459;76;726;-71
2024/02/13 12:04:01;;;;;;;;;;;17.80;42.70;;;;;;1550620;76;1166;-71
2024/02/13 12:06:06;;;;;;;;;;;17.80;42.80;;;;;;1550358;76;737;-71
2024/02/13 12:08:09;;;;;;;;;;;17.80;42.70;;;;;;1541981;76;1536;-69
2024/02/13 12:10:12;;;;;;;;;;;17.70;42.70;;;;;;1544128;76;676;-70
2024/02/13 12:12:14;;;;;;;;;;;17.80;42.70;;;;;;1548540;76;691;-71
2024/02/13 12:14:16;;;;;;;;;;;17.80;42.70;;;;;;1549586;75;1178;-71